sensor_id;sensor_type;location;lat;lon;timestamp;temperature;humidity
69054;DHT22;56125;52.242;4.756;2023-05-15T00:02:56;20.20;56.40
69054;DHT22;56125;52.242;4.756;2023-05-15T00:07:59;20.20;56.60
69054;DHT22;56125;52.242;4.756;2023-05-15T00:13:00;20.20;56.30
69054;DHT22;56125;52.242;4.756;2023-05-15T00:18:01;20.20;56.40
69054;DHT22;56125;52.242;4.756;2023-05-15T00:23:02;20.20;56.30
69054;DHT22;56125;52.242;4.756;2023-05-15T00:28:03;20.20;56.20
69054;DHT22;56125;52.242;4.756;2023-05-15T00:33:04;20.10;56.20
69054;DHT22;56125;52.242;4.756;2023-05-15T00:38:05;20.20;56.30
69054;DHT22;56125;52.242;4.756;2023-05-15T00:43:07;20.20;56.20
69054;DHT22;56125;52.242;4.756;2023-05-15T00:48:09;20.10;56.10
69054;DHT22;56125;52.242;4.756;2023-05-15T00:53:11;20.10;56.10
69054;DHT22;56125;52.242;4.756;2023-05-15T00:58:13;20.10;56.10
69054;DHT22;56125;52.242;4.756;2023-05-15T01:03:15;20.10;56.10
69054;DHT22;56125;52.242;4.756;2023-05-15T01:08:25;20.10;56.10
69054;DHT22;56125;52.242;4.756;2023-05-15T01:13:26;20.10;56.10
69054;DHT22;56125;52.242;4.756;2023-05-15T01:18:27;20.10;56.10
69054;DHT22;56125;52.242;4.756;2023-05-15T01:24:01;20.00;56.10
69054;DHT22;56125;52.242;4.756;2023-05-15T01:29:10;20.30;56.20
69054;DHT22;56125;52.242;4.756;2023-05-15T01:34:12;20.10;56.20
69054;DHT22;56125;52.242;4.756;2023-05-15T01:39:18;20.10;56.20
69054;DHT22;56125;52.242;4.756;2023-05-15T01:44:35;20.00;55.90
69054;DHT22;56125;52.242;4.756;2023-05-15T01:49:37;20.10;56.00
69054;DHT22;56125;52.242;4.756;2023-05-15T01:54:39;20.00;55.90
69054;DHT22;56125;52.242;4.756;2023-05-15T01:59:42;20.00;56.00
69054;DHT22;56125;52.242;4.756;2023-05-15T02:04:44;19.90;55.80
69054;DHT22;56125;52.242;4.756;2023-05-15T02:09:46;20.00;55.90
69054;DHT22;56125;52.242;4.756;2023-05-15T02:14:48;20.00;56.60
69054;DHT22;56125;52.242;4.756;2023-05-15T02:19:50;20.00;55.90
69054;DHT22;56125;52.242;4.756;2023-05-15T02:24:51;20.00;55.90
69054;DHT22;56125;52.242;4.756;2023-05-15T02:35:11;20.00;56.00
69054;DHT22;56125;52.242;4.756;2023-05-15T02:40:14;20.00;56.00
69054;DHT22;56125;52.242;4.756;2023-05-15T02:45:16;20.00;55.90
69054;DHT22;56125;52.242;4.756;2023-05-15T02:50:17;19.90;55.90
69054;DHT22;56125;52.242;4.756;2023-05-15T02:55:18;20.00;56.50
69054;DHT22;56125;52.242;4.756;2023-05-15T03:00:19;20.00;55.80
69054;DHT22;56125;52.242;4.756;2023-05-15T03:05:20;20.00;55.80
69054;DHT22;56125;52.242;4.756;2023-05-15T03:10:21;19.90;55.70
69054;DHT22;56125;52.242;4.756;2023-05-15T03:15:24;19.90;55.90
69054;DHT22;56125;52.242;4.756;2023-05-15T03:20:25;19.90;55.60
69054;DHT22;56125;52.242;4.756;2023-05-15T03:25:26;19.90;55.70
69054;DHT22;56125;52.242;4.756;2023-05-15T03:30:27;19.90;55.70
69054;DHT22;56125;52.242;4.756;2023-05-15T03:35:28;19.90;55.60
69054;DHT22;56125;52.242;4.756;2023-05-15T03:40:30;19.90;55.80
69054;DHT22;56125;52.242;4.756;2023-05-15T03:45:32;19.90;55.60
69054;DHT22;56125;52.242;4.756;2023-05-15T03:50:34;19.90;55.70
69054;DHT22;56125;52.242;4.756;2023-05-15T03:55:35;19.90;55.60
69054;DHT22;56125;52.242;4.756;2023-05-15T04:00:37;19.90;55.60
69054;DHT22;56125;52.242;4.756;2023-05-15T04:05:38;19.80;55.60
69054;DHT22;56125;52.242;4.756;2023-05-15T04:10:39;19.90;55.60
69054;DHT22;56125;52.242;4.756;2023-05-15T04:15:40;19.90;55.60
69054;DHT22;56125;52.242;4.756;2023-05-15T04:20:41;19.90;55.80
69054;DHT22;56125;52.242;4.756;2023-05-15T04:25:42;19.90;55.60
69054;DHT22;56125;52.242;4.756;2023-05-15T04:30:46;19.90;55.60
69054;DHT22;56125;52.242;4.756;2023-05-15T04:35:47;19.90;55.60
69054;DHT22;56125;52.242;4.756;2023-05-15T04:40:48;19.90;55.60
69054;DHT22;56125;52.242;4.756;2023-05-15T04:45:49;19.90;55.90
69054;DHT22;56125;52.242;4.756;2023-05-15T04:50:50;19.90;56.90
69054;DHT22;56125;52.242;4.756;2023-05-15T04:55:51;19.90;55.80
69054;DHT22;56125;52.242;4.756;2023-05-15T05:00:53;19.90;55.70
69054;DHT22;56125;52.242;4.756;2023-05-15T05:05:54;19.90;55.60
69054;DHT22;56125;52.242;4.756;2023-05-15T05:10:56;19.80;55.60
69054;DHT22;56125;52.242;4.756;2023-05-15T05:15:57;19.90;55.60
69054;DHT22;56125;52.242;4.756;2023-05-15T05:20:59;19.90;55.70
69054;DHT22;56125;52.242;4.756;2023-05-15T05:26:01;19.80;55.60
69054;DHT22;56125;52.242;4.756;2023-05-15T05:31:02;19.80;55.50
69054;DHT22;56125;52.242;4.756;2023-05-15T05:36:03;19.90;55.60
69054;DHT22;56125;52.242;4.756;2023-05-15T05:41:05;20.00;55.60
69054;DHT22;56125;52.242;4.756;2023-05-15T05:46:06;19.80;55.40
69054;DHT22;56125;52.242;4.756;2023-05-15T05:51:07;19.90;55.50
69054;DHT22;56125;52.242;4.756;2023-05-15T05:56:08;19.90;55.70
69054;DHT22;56125;52.242;4.756;2023-05-15T06:01:10;19.90;56.50
69054;DHT22;56125;52.242;4.756;2023-05-15T06:06:11;19.90;55.50
69054;DHT22;56125;52.242;4.756;2023-05-15T06:11:12;19.90;55.50
69054;DHT22;56125;52.242;4.756;2023-05-15T06:16:13;19.90;55.70
69054;DHT22;56125;52.242;4.756;2023-05-15T06:21:14;19.90;55.50
69054;DHT22;56125;52.242;4.756;2023-05-15T06:26:15;19.90;55.60
69054;DHT22;56125;52.242;4.756;2023-05-15T06:31:16;19.90;55.40
69054;DHT22;56125;52.242;4.756;2023-05-15T06:36:17;19.90;55.50
69054;DHT22;56125;52.242;4.756;2023-05-15T06:41:18;19.90;55.40
69054;DHT22;56125;52.242;4.756;2023-05-15T06:46:20;19.90;55.40
69054;DHT22;56125;52.242;4.756;2023-05-15T06:51:21;20.00;55.40
69054;DHT22;56125;52.242;4.756;2023-05-15T06:56:22;20.00;55.40
69054;DHT22;56125;52.242;4.756;2023-05-15T07:01:23;20.00;55.40
69054;DHT22;56125;52.242;4.756;2023-05-15T07:06:24;20.00;55.50
69054;DHT22;56125;52.242;4.756;2023-05-15T07:11:26;20.00;55.40
69054;DHT22;56125;52.242;4.756;2023-05-15T07:16:28;20.00;55.30
69054;DHT22;56125;52.242;4.756;2023-05-15T07:21:29;19.70;55.20
69054;DHT22;56125;52.242;4.756;2023-05-15T07:26:31;20.00;55.20
69054;DHT22;56125;52.242;4.756;2023-05-15T07:31:32;20.00;55.30
69054;DHT22;56125;52.242;4.756;2023-05-15T07:36:33;20.00;55.30
69054;DHT22;56125;52.242;4.756;2023-05-15T07:41:34;20.00;55.30
69054;DHT22;56125;52.242;4.756;2023-05-15T07:46:35;20.60;55.60
69054;DHT22;56125;52.242;4.756;2023-05-15T07:51:36;20.00;55.10
69054;DHT22;56125;52.242;4.756;2023-05-15T07:56:37;20.00;55.30
69054;DHT22;56125;52.242;4.756;2023-05-15T08:01:38;20.00;55.30
69054;DHT22;56125;52.242;4.756;2023-05-15T08:06:39;20.00;55.20
69054;DHT22;56125;52.242;4.756;2023-05-15T08:11:42;20.00;55.20
69054;DHT22;56125;52.242;4.756;2023-05-15T08:16:43;20.00;55.30
69054;DHT22;56125;52.242;4.756;2023-05-15T08:21:44;20.00;55.20
69054;DHT22;56125;52.242;4.756;2023-05-15T08:26:45;20.50;55.50
69054;DHT22;56125;52.242;4.756;2023-05-15T08:31:46;19.90;55.20
69054;DHT22;56125;52.242;4.756;2023-05-15T08:36:47;20.00;55.30
69054;DHT22;56125;52.242;4.756;2023-05-15T08:47:20;20.00;55.20
69054;DHT22;56125;52.242;4.756;2023-05-15T08:52:22;20.00;55.20
69054;DHT22;56125;52.242;4.756;2023-05-15T08:57:25;20.00;55.20
69054;DHT22;56125;52.242;4.756;2023-05-15T09:02:27;20.00;55.20
69054;DHT22;56125;52.242;4.756;2023-05-15T09:07:29;20.00;55.10
69054;DHT22;56125;52.242;4.756;2023-05-15T09:12:33;20.00;55.30
69054;DHT22;56125;52.242;4.756;2023-05-15T09:17:34;20.00;55.30
69054;DHT22;56125;52.242;4.756;2023-05-15T09:22:35;20.00;55.30
69054;DHT22;56125;52.242;4.756;2023-05-15T09:27:41;20.40;55.50
69054;DHT22;56125;52.242;4.756;2023-05-15T09:32:43;20.70;55.60
69054;DHT22;56125;52.242;4.756;2023-05-15T09:37:44;20.00;55.30
69054;DHT22;56125;52.242;4.756;2023-05-15T09:42:50;20.00;55.20
69054;DHT22;56125;52.242;4.756;2023-05-15T09:47:52;20.00;55.30
69054;DHT22;56125;52.242;4.756;2023-05-15T09:52:53;19.50;55.00
69054;DHT22;56125;52.242;4.756;2023-05-15T09:58:12;20.00;55.20
69054;DHT22;56125;52.242;4.756;2023-05-15T10:03:13;20.00;55.20
69054;DHT22;56125;52.242;4.756;2023-05-15T10:08:16;20.00;55.20
69054;DHT22;56125;52.242;4.756;2023-05-15T10:13:26;20.10;55.30
69054;DHT22;56125;52.242;4.756;2023-05-15T10:18:29;20.00;55.30
69054;DHT22;56125;52.242;4.756;2023-05-15T10:23:36;20.00;55.20
69054;DHT22;56125;52.242;4.756;2023-05-15T10:28:41;20.00;55.10
69054;DHT22;56125;52.242;4.756;2023-05-15T10:33:43;20.00;55.20
69054;DHT22;56125;52.242;4.756;2023-05-15T10:38:46;20.10;55.20
69054;DHT22;56125;52.242;4.756;2023-05-15T10:43:48;20.10;55.20
69054;DHT22;56125;52.242;4.756;2023-05-15T10:48:49;20.10;55.20
69054;DHT22;56125;52.242;4.756;2023-05-15T10:53:51;20.10;55.10
69054;DHT22;56125;52.242;4.756;2023-05-15T10:58:54;20.20;55.00
69054;DHT22;56125;52.242;4.756;2023-05-15T11:14:27;20.20;54.90
69054;DHT22;56125;52.242;4.756;2023-05-15T11:24:49;20.30;54.80
69054;DHT22;56125;52.242;4.756;2023-05-15T11:30:03;20.30;55.70
69054;DHT22;56125;52.242;4.756;2023-05-15T11:35:12;20.30;54.80
69054;DHT22;56125;52.242;4.756;2023-05-15T11:40:18;20.30;54.80
69054;DHT22;56125;52.242;4.756;2023-05-15T11:45:21;20.30;54.70
69054;DHT22;56125;52.242;4.756;2023-05-15T11:50:24;20.30;54.70
69054;DHT22;56125;52.242;4.756;2023-05-15T11:55:25;20.30;54.80
69054;DHT22;56125;52.242;4.756;2023-05-15T12:00:26;20.30;54.80
69054;DHT22;56125;52.242;4.756;2023-05-15T12:05:28;20.30;54.70
69054;DHT22;56125;52.242;4.756;2023-05-15T12:10:29;20.30;54.90
69054;DHT22;56125;52.242;4.756;2023-05-15T12:15:31;20.30;54.90
69054;DHT22;56125;52.242;4.756;2023-05-15T12:20:36;20.30;54.80
69054;DHT22;56125;52.242;4.756;2023-05-15T12:25:37;20.30;54.80
69054;DHT22;56125;52.242;4.756;2023-05-15T12:30:38;20.40;54.90
69054;DHT22;56125;52.242;4.756;2023-05-15T12:35:48;20.30;54.70
69054;DHT22;56125;52.242;4.756;2023-05-15T12:40:52;20.30;54.90
69054;DHT22;56125;52.242;4.756;2023-05-15T12:45:56;20.30;54.80
69054;DHT22;56125;52.242;4.756;2023-05-15T12:51:04;20.30;54.80
69054;DHT22;56125;52.242;4.756;2023-05-15T12:56:07;20.40;54.70
69054;DHT22;56125;52.242;4.756;2023-05-15T13:01:09;20.30;54.70
69054;DHT22;56125;52.242;4.756;2023-05-15T13:06:10;20.30;54.50
69054;DHT22;56125;52.242;4.756;2023-05-15T13:11:12;20.30;55.60
69054;DHT22;56125;52.242;4.756;2023-05-15T13:16:26;20.30;54.50
69054;DHT22;56125;52.242;4.756;2023-05-15T13:21:30;20.30;54.60
69054;DHT22;56125;52.242;4.756;2023-05-15T13:26:31;20.30;54.70
69054;DHT22;56125;52.242;4.756;2023-05-15T13:31:32;20.30;54.70
69054;DHT22;56125;52.242;4.756;2023-05-15T13:36:33;20.30;54.40
69054;DHT22;56125;52.242;4.756;2023-05-15T13:41:35;20.30;54.30
69054;DHT22;56125;52.242;4.756;2023-05-15T13:46:36;20.30;54.30
69054;DHT22;56125;52.242;4.756;2023-05-15T13:51:37;20.30;54.20
69054;DHT22;56125;52.242;4.756;2023-05-15T13:56:38;20.30;54.30
69054;DHT22;56125;52.242;4.756;2023-05-15T14:01:39;20.60;54.50
69054;DHT22;56125;52.242;4.756;2023-05-15T14:06:40;20.30;54.40
69054;DHT22;56125;52.242;4.756;2023-05-15T14:11:41;20.40;54.70
69054;DHT22;56125;52.242;4.756;2023-05-15T14:16:42;20.30;54.60
69054;DHT22;56125;52.242;4.756;2023-05-15T14:21:43;20.30;54.50
69054;DHT22;56125;52.242;4.756;2023-05-15T14:26:44;20.30;54.80
69054;DHT22;56125;52.242;4.756;2023-05-15T14:31:45;20.30;54.60
69054;DHT22;56125;52.242;4.756;2023-05-15T14:36:46;20.30;54.60
69054;DHT22;56125;52.242;4.756;2023-05-15T14:41:48;20.30;55.30
69054;DHT22;56125;52.242;4.756;2023-05-15T14:47:10;20.30;54.60
69054;DHT22;56125;52.242;4.756;2023-05-15T14:52:14;20.30;54.60
69054;DHT22;56125;52.242;4.756;2023-05-15T14:57:15;20.30;54.50
69054;DHT22;56125;52.242;4.756;2023-05-15T15:02:20;20.30;54.40
69054;DHT22;56125;52.242;4.756;2023-05-15T15:07:21;20.30;54.30
69054;DHT22;56125;52.242;4.756;2023-05-15T15:12:22;20.30;54.40
69054;DHT22;56125;52.242;4.756;2023-05-15T15:17:23;20.30;54.40
69054;DHT22;56125;52.242;4.756;2023-05-15T15:22:24;20.40;54.30
69054;DHT22;56125;52.242;4.756;2023-05-15T15:27:25;19.60;53.90
69054;DHT22;56125;52.242;4.756;2023-05-15T15:32:26;20.40;54.30
69054;DHT22;56125;52.242;4.756;2023-05-15T15:37:29;20.40;54.50
69054;DHT22;56125;52.242;4.756;2023-05-15T15:42:31;20.40;54.30
69054;DHT22;56125;52.242;4.756;2023-05-15T15:47:32;20.30;54.10
69054;DHT22;56125;52.242;4.756;2023-05-15T15:52:33;20.30;54.10
69054;DHT22;56125;52.242;4.756;2023-05-15T15:57:35;20.30;54.00
69054;DHT22;56125;52.242;4.756;2023-05-15T16:02:36;20.30;54.10
69054;DHT22;56125;52.242;4.756;2023-05-15T16:07:37;20.30;54.00
69054;DHT22;56125;52.242;4.756;2023-05-15T16:12:39;20.30;54.00
69054;DHT22;56125;52.242;4.756;2023-05-15T16:17:40;20.30;54.00
69054;DHT22;56125;52.242;4.756;2023-05-15T16:22:41;20.30;54.10
69054;DHT22;56125;52.242;4.756;2023-05-15T16:27:43;20.30;53.90
69054;DHT22;56125;52.242;4.756;2023-05-15T16:32:44;20.30;53.90
69054;DHT22;56125;52.242;4.756;2023-05-15T16:37:45;20.30;53.90
69054;DHT22;56125;52.242;4.756;2023-05-15T16:42:46;20.30;53.70
69054;DHT22;56125;52.242;4.756;2023-05-15T16:47:47;19.80;53.40
69054;DHT22;56125;52.242;4.756;2023-05-15T16:52:48;20.20;53.60
69054;DHT22;56125;52.242;4.756;2023-05-15T16:57:49;20.30;53.60
69054;DHT22;56125;52.242;4.756;2023-05-15T17:02:50;20.20;53.50
69054;DHT22;56125;52.242;4.756;2023-05-15T17:07:52;20.20;53.50
69054;DHT22;56125;52.242;4.756;2023-05-15T17:12:53;20.20;53.50
69054;DHT22;56125;52.242;4.756;2023-05-15T17:17:54;20.20;53.60
69054;DHT22;56125;52.242;4.756;2023-05-15T17:22:55;20.20;53.70
69054;DHT22;56125;52.242;4.756;2023-05-15T17:27:56;20.20;53.80
69054;DHT22;56125;52.242;4.756;2023-05-15T17:32:57;20.20;53.70
69054;DHT22;56125;52.242;4.756;2023-05-15T17:37:59;20.20;54.50
69054;DHT22;56125;52.242;4.756;2023-05-15T17:43:01;20.30;56.00
69054;DHT22;56125;52.242;4.756;2023-05-15T17:48:02;20.20;57.50
69054;DHT22;56125;52.242;4.756;2023-05-15T17:53:04;20.30;57.20
69054;DHT22;56125;52.242;4.756;2023-05-15T17:58:05;20.40;57.90
69054;DHT22;56125;52.242;4.756;2023-05-15T18:03:06;20.30;57.90
69054;DHT22;56125;52.242;4.756;2023-05-15T18:08:07;20.30;58.10
69054;DHT22;56125;52.242;4.756;2023-05-15T18:13:09;20.30;58.60
69054;DHT22;56125;52.242;4.756;2023-05-15T18:18:10;20.20;55.80
69054;DHT22;56125;52.242;4.756;2023-05-15T18:23:11;20.30;55.50
69054;DHT22;56125;52.242;4.756;2023-05-15T18:28:12;20.20;56.60
69054;DHT22;56125;52.242;4.756;2023-05-15T18:33:14;20.20;56.60
69054;DHT22;56125;52.242;4.756;2023-05-15T18:38:16;20.20;57.90
69054;DHT22;56125;52.242;4.756;2023-05-15T18:43:17;20.20;58.00
69054;DHT22;56125;52.242;4.756;2023-05-15T18:48:18;20.20;58.10
69054;DHT22;56125;52.242;4.756;2023-05-15T18:53:19;20.20;58.20
69054;DHT22;56125;52.242;4.756;2023-05-15T18:58:21;20.20;58.20
69054;DHT22;56125;52.242;4.756;2023-05-15T19:03:23;20.20;58.40
69054;DHT22;56125;52.242;4.756;2023-05-15T19:08:25;20.20;57.90
69054;DHT22;56125;52.242;4.756;2023-05-15T19:13:26;20.20;56.30
69054;DHT22;56125;52.242;4.756;2023-05-15T19:18:29;20.10;55.80
69054;DHT22;56125;52.242;4.756;2023-05-15T19:23:30;20.10;54.80
69054;DHT22;56125;52.242;4.756;2023-05-15T19:28:31;20.00;54.30
69054;DHT22;56125;52.242;4.756;2023-05-15T19:33:33;20.00;54.50
69054;DHT22;56125;52.242;4.756;2023-05-15T19:38:34;20.00;54.90
69054;DHT22;56125;52.242;4.756;2023-05-15T19:43:35;20.00;54.80
69054;DHT22;56125;52.242;4.756;2023-05-15T19:48:38;20.00;54.80
69054;DHT22;56125;52.242;4.756;2023-05-15T19:53:39;19.90;53.80
69054;DHT22;56125;52.242;4.756;2023-05-15T19:58:41;19.90;54.60
69054;DHT22;56125;52.242;4.756;2023-05-15T20:03:42;19.90;54.70
69054;DHT22;56125;52.242;4.756;2023-05-15T20:08:43;19.90;55.10
69054;DHT22;56125;52.242;4.756;2023-05-15T20:13:44;19.90;55.40
69054;DHT22;56125;52.242;4.756;2023-05-15T20:18:45;19.90;54.80
69054;DHT22;56125;52.242;4.756;2023-05-15T20:23:47;20.00;56.30
69054;DHT22;56125;52.242;4.756;2023-05-15T20:28:49;20.00;56.20
69054;DHT22;56125;52.242;4.756;2023-05-15T20:33:50;20.00;56.50
69054;DHT22;56125;52.242;4.756;2023-05-15T20:38:51;19.70;56.10
69054;DHT22;56125;52.242;4.756;2023-05-15T20:43:52;20.00;56.40
69054;DHT22;56125;52.242;4.756;2023-05-15T20:48:53;20.00;56.50
69054;DHT22;56125;52.242;4.756;2023-05-15T20:53:54;20.00;56.50
69054;DHT22;56125;52.242;4.756;2023-05-15T20:58:56;20.00;56.60
69054;DHT22;56125;52.242;4.756;2023-05-15T21:03:57;20.00;57.10
69054;DHT22;56125;52.242;4.756;2023-05-15T21:08:58;20.10;57.30
69054;DHT22;56125;52.242;4.756;2023-05-15T21:13:59;20.00;56.70
69054;DHT22;56125;52.242;4.756;2023-05-15T21:19:01;20.00;57.40
69054;DHT22;56125;52.242;4.756;2023-05-15T21:24:02;20.00;57.20
69054;DHT22;56125;52.242;4.756;2023-05-15T21:29:03;20.00;57.40
69054;DHT22;56125;52.242;4.756;2023-05-15T21:34:04;20.00;57.40
69054;DHT22;56125;52.242;4.756;2023-05-15T21:39:05;20.00;57.40
69054;DHT22;56125;52.242;4.756;2023-05-15T21:44:06;19.90;57.40
69054;DHT22;56125;52.242;4.756;2023-05-15T21:49:07;19.90;57.50
69054;DHT22;56125;52.242;4.756;2023-05-15T21:54:08;19.90;57.50
69054;DHT22;56125;52.242;4.756;2023-05-15T21:59:09;19.90;57.40
69054;DHT22;56125;52.242;4.756;2023-05-15T22:04:13;19.90;57.60
69054;DHT22;56125;52.242;4.756;2023-05-15T22:09:14;19.80;57.40
69054;DHT22;56125;52.242;4.756;2023-05-15T22:14:15;19.80;57.60
69054;DHT22;56125;52.242;4.756;2023-05-15T22:19:17;19.80;57.40
69054;DHT22;56125;52.242;4.756;2023-05-15T22:24:18;19.80;57.10
69054;DHT22;56125;52.242;4.756;2023-05-15T22:29:19;19.80;57.10
69054;DHT22;56125;52.242;4.756;2023-05-15T22:34:20;19.80;57.20
69054;DHT22;56125;52.242;4.756;2023-05-15T22:39:21;19.80;57.40
69054;DHT22;56125;52.242;4.756;2023-05-15T22:44:22;19.70;57.50
69054;DHT22;56125;52.242;4.756;2023-05-15T22:49:24;19.70;57.40
69054;DHT22;56125;52.242;4.756;2023-05-15T22:54:25;19.70;57.10
69054;DHT22;56125;52.242;4.756;2023-05-15T22:59:26;19.70;57.10
69054;DHT22;56125;52.242;4.756;2023-05-15T23:04:27;19.70;57.00
69054;DHT22;56125;52.242;4.756;2023-05-15T23:09:28;19.70;57.00
69054;DHT22;56125;52.242;4.756;2023-05-15T23:14:29;19.70;56.80
69054;DHT22;56125;52.242;4.756;2023-05-15T23:19:30;19.70;56.90
69054;DHT22;56125;52.242;4.756;2023-05-15T23:24:31;19.70;57.00
69054;DHT22;56125;52.242;4.756;2023-05-15T23:29:32;19.70;56.90
69054;DHT22;56125;52.242;4.756;2023-05-15T23:34:33;19.80;57.10
69054;DHT22;56125;52.242;4.756;2023-05-15T23:39:35;19.60;58.00
69054;DHT22;56125;52.242;4.756;2023-05-15T23:44:36;19.60;56.70
69054;DHT22;56125;52.242;4.756;2023-05-15T23:49:37;19.60;56.60
69054;DHT22;56125;52.242;4.756;2023-05-15T23:54:38;19.60;56.40
69054;DHT22;56125;52.242;4.756;2023-05-15T23:59:39;19.60;56.60
